sensor_id;sensor_type;location;lat;lon;timestamp;pressure;altitude;pressure_sealevel;temperature;humidity
61086;BME280;46967;48.876;2.136;2022-12-10T00:01:19;100644.06;;;2.06;88.35
61086;BME280;46967;48.876;2.136;2022-12-10T00:03:45;100648.31;;;2.04;88.84
61086;BME280;46967;48.876;2.136;2022-12-10T00:06:13;100650.88;;;2.07;88.91
61086;BME280;46967;48.876;2.136;2022-12-10T00:08:39;100656.84;;;2.08;88.75
61086;BME280;46967;48.876;2.136;2022-12-10T00:11:07;100662.84;;;2.07;89.05
61086;BME280;46967;48.876;2.136;2022-12-10T00:13:34;100659.44;;;2.06;89.00
61086;BME280;46967;48.876;2.136;2022-12-10T00:16:01;100656.84;;;1.95;89.26
61086;BME280;46967;48.876;2.136;2022-12-10T00:18:26;100654.25;;;1.92;89.38
61086;BME280;46967;48.876;2.136;2022-12-10T00:20:52;100661.97;;;1.98;89.04
61086;BME280;46967;48.876;2.136;2022-12-10T00:23:18;100661.88;;;1.80;90.42
61086;BME280;46967;48.876;2.136;2022-12-10T00:25:43;100660.16;;;1.74;90.58
61086;BME280;46967;48.876;2.136;2022-12-10T00:28:08;100673.00;;;1.90;89.70
61086;BME280;46967;48.876;2.136;2022-12-10T00:30:34;100662.69;;;1.71;90.87
61086;BME280;46967;48.876;2.136;2022-12-10T00:32:59;100666.91;;;1.60;91.62
61086;BME280;46967;48.876;2.136;2022-12-10T00:35:25;100671.25;;;1.73;90.61
61086;BME280;46967;48.876;2.136;2022-12-10T00:37:50;100671.22;;;1.69;90.88
61086;BME280;46967;48.876;2.136;2022-12-10T00:40:15;100681.44;;;1.62;90.93
61086;BME280;46967;48.876;2.136;2022-12-10T00:42:41;100677.16;;;1.61;91.10
61086;BME280;46967;48.876;2.136;2022-12-10T00:45:06;100672.75;;;1.36;92.22
61086;BME280;46967;48.876;2.136;2022-12-10T00:47:35;100683.69;;;1.12;93.43
61086;BME280;46967;48.876;2.136;2022-12-10T00:50:00;100679.38;;;1.09;93.71
61086;BME280;46967;48.876;2.136;2022-12-10T00:52:26;100674.19;;;1.00;94.05
61086;BME280;46967;48.876;2.136;2022-12-10T00:54:51;100680.19;;;0.99;94.29
61086;BME280;46967;48.876;2.136;2022-12-10T00:57:17;100665.69;;;1.01;94.54
61086;BME280;46967;48.876;2.136;2022-12-10T00:59:42;100656.34;;;1.04;94.03
61086;BME280;46967;48.876;2.136;2022-12-10T01:02:07;100667.53;;;1.20;93.31
61086;BME280;46967;48.876;2.136;2022-12-10T01:04:33;100670.19;;;1.36;92.84
61086;BME280;46967;48.876;2.136;2022-12-10T01:06:58;100671.13;;;1.49;92.32
61086;BME280;46967;48.876;2.136;2022-12-10T01:09:27;100680.47;;;1.43;92.54
61086;BME280;46967;48.876;2.136;2022-12-10T01:11:54;100674.47;;;1.37;92.61
61086;BME280;46967;48.876;2.136;2022-12-10T01:14:31;100675.41;;;1.54;91.44
61086;BME280;46967;48.876;2.136;2022-12-10T01:17:02;100681.44;;;1.62;91.10
61086;BME280;46967;48.876;2.136;2022-12-10T01:19:29;100675.47;;;1.62;90.81
61086;BME280;46967;48.876;2.136;2022-12-10T01:21:55;100681.44;;;1.67;90.34
61086;BME280;46967;48.876;2.136;2022-12-10T01:24:21;100678.91;;;1.70;90.29
61086;BME280;46967;48.876;2.136;2022-12-10T01:26:47;100672.91;;;1.65;89.95
61086;BME280;46967;48.876;2.136;2022-12-10T01:29:13;100691.63;;;1.55;91.00
61086;BME280;46967;48.876;2.136;2022-12-10T01:31:38;100699.34;;;1.66;90.11
61086;BME280;46967;48.876;2.136;2022-12-10T01:34:06;100701.97;;;1.75;89.73
61086;BME280;46967;48.876;2.136;2022-12-10T01:36:52;100715.66;;;1.83;89.44
61086;BME280;46967;48.876;2.136;2022-12-10T01:39:19;100713.88;;;1.73;90.04
61086;BME280;46967;48.876;2.136;2022-12-10T01:41:47;100714.72;;;1.66;90.21
61086;BME280;46967;48.876;2.136;2022-12-10T01:46:41;100712.09;;;1.56;91.03
61086;BME280;46967;48.876;2.136;2022-12-10T01:49:09;100714.56;;;1.45;91.66
61086;BME280;46967;48.876;2.136;2022-12-10T01:51:37;100712.81;;;1.32;92.61
61086;BME280;46967;48.876;2.136;2022-12-10T01:54:09;100715.44;;;1.41;91.90
61086;BME280;46967;48.876;2.136;2022-12-10T01:56:38;100720.50;;;1.38;92.14
61086;BME280;46967;48.876;2.136;2022-12-10T01:59:05;100725.44;;;1.14;93.17
61086;BME280;46967;48.876;2.136;2022-12-10T02:07:14;100727.84;;;0.97;95.16
61086;BME280;46967;48.876;2.136;2022-12-10T02:09:53;100737.28;;;1.02;94.91
61086;BME280;46967;48.876;2.136;2022-12-10T02:12:46;100740.56;;;0.87;95.67
61086;BME280;46967;48.876;2.136;2022-12-10T02:15:16;100748.97;;;0.76;96.49
61086;BME280;46967;48.876;2.136;2022-12-10T02:17:48;100746.41;;;0.76;96.45
61086;BME280;46967;48.876;2.136;2022-12-10T02:20:32;100746.38;;;0.72;96.81
61086;BME280;46967;48.876;2.136;2022-12-10T02:23:03;100752.38;;;0.73;96.67
61086;BME280;46967;48.876;2.136;2022-12-10T02:25:38;100756.56;;;0.68;97.25
61086;BME280;46967;48.876;2.136;2022-12-10T02:28:17;100754.97;;;0.81;96.75
61086;BME280;46967;48.876;2.136;2022-12-10T02:30:45;100747.34;;;0.85;96.13
61086;BME280;46967;48.876;2.136;2022-12-10T02:33:13;100767.88;;;0.93;96.20
61086;BME280;46967;48.876;2.136;2022-12-10T02:35:40;100760.09;;;0.82;96.45
61086;BME280;46967;48.876;2.136;2022-12-10T02:38:16;100767.72;;;0.79;96.41
61086;BME280;46967;48.876;2.136;2022-12-10T02:40:45;100761.56;;;0.60;97.52
61086;BME280;46967;48.876;2.136;2022-12-10T02:43:13;100761.56;;;0.59;97.81
61086;BME280;46967;48.876;2.136;2022-12-10T02:45:41;100763.31;;;0.63;98.00
61086;BME280;46967;48.876;2.136;2022-12-10T02:48:08;100757.28;;;0.54;98.00
61086;BME280;46967;48.876;2.136;2022-12-10T02:50:34;100767.50;;;0.56;98.22
61086;BME280;46967;48.876;2.136;2022-12-10T02:53:00;100766.63;;;0.52;98.69
61086;BME280;46967;48.876;2.136;2022-12-10T02:55:25;100764.09;;;0.54;98.95
61086;BME280;46967;48.876;2.136;2022-12-10T03:00:21;100763.31;;;0.61;98.67
61086;BME280;46967;48.876;2.136;2022-12-10T03:05:55;100754.84;;;0.67;98.36
61086;BME280;46967;48.876;2.136;2022-12-10T03:13:23;100769.59;;;0.94;97.47
61086;BME280;46967;48.876;2.136;2022-12-10T03:15:51;100760.22;;;0.96;96.86
61086;BME280;46967;48.876;2.136;2022-12-10T03:18:21;100759.56;;;1.17;96.14
61086;BME280;46967;48.876;2.136;2022-12-10T03:20:50;100769.78;;;1.19;95.95
61086;BME280;46967;48.876;2.136;2022-12-10T03:23:18;100768.84;;;1.06;95.87
61086;BME280;46967;48.876;2.136;2022-12-10T03:25:47;100762.91;;;1.10;95.55
61086;BME280;46967;48.876;2.136;2022-12-10T03:28:14;100766.38;;;1.17;95.45
61086;BME280;46967;48.876;2.136;2022-12-10T03:30:42;100777.31;;;0.99;95.93
61086;BME280;46967;48.876;2.136;2022-12-10T03:33:08;100781.53;;;0.98;95.62
61086;BME280;46967;48.876;2.136;2022-12-10T03:35:34;100777.91;;;0.76;96.46
61086;BME280;46967;48.876;2.136;2022-12-10T03:38:01;100782.06;;;0.65;97.11
61086;BME280;46967;48.876;2.136;2022-12-10T03:40:27;100777.75;;;0.58;97.20
61086;BME280;46967;48.876;2.136;2022-12-10T03:42:52;100785.25;;;0.45;97.88
61086;BME280;46967;48.876;2.136;2022-12-10T03:45:17;100786.91;;;0.40;98.09
61086;BME280;46967;48.876;2.136;2022-12-10T03:47:43;100789.50;;;0.43;98.29
61086;BME280;46967;48.876;2.136;2022-12-10T03:50:09;100792.06;;;0.43;97.97
61086;BME280;46967;48.876;2.136;2022-12-10T03:52:35;100795.56;;;0.51;97.83
61086;BME280;46967;48.876;2.136;2022-12-10T03:55:01;100788.69;;;0.47;97.88
61086;BME280;46967;48.876;2.136;2022-12-10T03:57:27;100794.72;;;0.52;97.66
61086;BME280;46967;48.876;2.136;2022-12-10T03:59:53;100796.38;;;0.49;97.53
61086;BME280;46967;48.876;2.136;2022-12-10T04:02:18;100797.31;;;0.56;97.74
61086;BME280;46967;48.876;2.136;2022-12-10T04:04:43;100802.38;;;0.52;97.75
61086;BME280;46967;48.876;2.136;2022-12-10T04:07:09;100800.75;;;0.59;97.53
61086;BME280;46967;48.876;2.136;2022-12-10T04:09:34;100799.19;;;0.74;97.21
61086;BME280;46967;48.876;2.136;2022-12-10T04:12:00;100799.31;;;0.84;96.75
61086;BME280;46967;48.876;2.136;2022-12-10T04:14:26;100801.00;;;0.84;96.45
61086;BME280;46967;48.876;2.136;2022-12-10T04:17:11;100795.19;;;0.99;95.55
61086;BME280;46967;48.876;2.136;2022-12-10T04:19:36;100791.81;;;1.03;95.73
61086;BME280;46967;48.876;2.136;2022-12-10T04:22:02;100796.19;;;1.13;95.05
61086;BME280;46967;48.876;2.136;2022-12-10T04:24:46;100791.75;;;0.97;95.18
61086;BME280;46967;48.876;2.136;2022-12-10T04:27:33;100787.44;;;0.91;95.42
61086;BME280;46967;48.876;2.136;2022-12-10T04:30:00;100791.81;;;1.04;95.17
61086;BME280;46967;48.876;2.136;2022-12-10T04:32:27;100796.88;;;0.98;95.27
61086;BME280;46967;48.876;2.136;2022-12-10T04:34:54;100796.84;;;0.95;95.60
61086;BME280;46967;48.876;2.136;2022-12-10T04:37:20;100792.72;;;1.08;95.00
61086;BME280;46967;48.876;2.136;2022-12-10T04:39:46;100794.44;;;1.09;94.58
61086;BME280;46967;48.876;2.136;2022-12-10T04:42:12;100794.53;;;1.21;94.11
61086;BME280;46967;48.876;2.136;2022-12-10T04:44:38;100797.88;;;1.16;94.04
61086;BME280;46967;48.876;2.136;2022-12-10T04:47:04;100805.66;;;1.26;93.78
61086;BME280;46967;48.876;2.136;2022-12-10T04:49:30;100808.31;;;1.39;93.37
61086;BME280;46967;48.876;2.136;2022-12-10T04:51:56;100808.34;;;1.42;93.13
61086;BME280;46967;48.876;2.136;2022-12-10T04:54:21;100807.53;;;1.44;92.75
61086;BME280;46967;48.876;2.136;2022-12-10T04:56:47;100810.13;;;1.54;92.37
61086;BME280;46967;48.876;2.136;2022-12-10T04:59:14;100816.19;;;1.62;91.79
61086;BME280;46967;48.876;2.136;2022-12-10T05:01:40;100803.44;;;1.67;91.43
61086;BME280;46967;48.876;2.136;2022-12-10T05:04:09;100811.06;;;1.62;91.25
61086;BME280;46967;48.876;2.136;2022-12-10T05:06:34;100816.19;;;1.65;91.14
61086;BME280;46967;48.876;2.136;2022-12-10T05:09:00;100813.59;;;1.59;91.42
61086;BME280;46967;48.876;2.136;2022-12-10T05:11:27;100816.19;;;1.65;90.98
61086;BME280;46967;48.876;2.136;2022-12-10T05:13:54;100805.97;;;1.67;90.80
61086;BME280;46967;48.876;2.136;2022-12-10T05:16:22;100796.66;;;1.75;90.56
61086;BME280;46967;48.876;2.136;2022-12-10T05:18:48;100809.44;;;1.75;90.47
61086;BME280;46967;48.876;2.136;2022-12-10T05:21:16;100823.91;;;1.71;90.59
61086;BME280;46967;48.876;2.136;2022-12-10T05:23:44;100817.09;;;1.72;90.53
61086;BME280;46967;48.876;2.136;2022-12-10T05:26:16;100820.56;;;1.80;89.94
61086;BME280;46967;48.876;2.136;2022-12-10T05:28:44;100831.53;;;1.63;90.37
61086;BME280;46967;48.876;2.136;2022-12-10T05:31:18;100822.06;;;1.53;90.79
61086;BME280;46967;48.876;2.136;2022-12-10T05:33:44;100829.63;;;1.39;91.14
61086;BME280;46967;48.876;2.136;2022-12-10T05:36:11;100829.63;;;1.38;90.78
61086;BME280;46967;48.876;2.136;2022-12-10T05:38:38;100840.59;;;1.26;91.71
61086;BME280;46967;48.876;2.136;2022-12-10T05:41:05;100827.84;;;1.27;91.21
61086;BME280;46967;48.876;2.136;2022-12-10T05:43:31;100832.03;;;1.21;92.02
61086;BME280;46967;48.876;2.136;2022-12-10T05:46:01;100837.13;;;1.18;92.04
61086;BME280;46967;48.876;2.136;2022-12-10T05:48:27;100831.19;;;1.23;92.02
61086;BME280;46967;48.876;2.136;2022-12-10T05:50:53;100832.97;;;1.31;91.74
61086;BME280;46967;48.876;2.136;2022-12-10T05:53:18;100832.16;;;1.38;91.26
61086;BME280;46967;48.876;2.136;2022-12-10T05:55:44;100837.41;;;1.52;90.67
61086;BME280;46967;48.876;2.136;2022-12-10T05:58:09;100833.97;;;1.47;91.00
61086;BME280;46967;48.876;2.136;2022-12-10T06:00:35;100825.47;;;1.49;90.89
61086;BME280;46967;48.876;2.136;2022-12-10T06:03:00;100827.25;;;1.59;90.37
61086;BME280;46967;48.876;2.136;2022-12-10T06:05:25;100832.31;;;1.55;90.41
61086;BME280;46967;48.876;2.136;2022-12-10T06:07:51;100829.81;;;1.61;89.92
61086;BME280;46967;48.876;2.136;2022-12-10T06:10:17;100840.06;;;1.62;90.07
61086;BME280;46967;48.876;2.136;2022-12-10T06:12:42;100838.28;;;1.55;90.44
61086;BME280;46967;48.876;2.136;2022-12-10T06:15:08;100848.50;;;1.54;90.25
61086;BME280;46967;48.876;2.136;2022-12-10T06:17:33;100851.97;;;1.57;89.89
61086;BME280;46967;48.876;2.136;2022-12-10T06:19:59;100860.28;;;1.32;90.58
61086;BME280;46967;48.876;2.136;2022-12-10T06:22:24;100858.59;;;1.35;90.75
61086;BME280;46967;48.876;2.136;2022-12-10T06:24:49;100865.53;;;1.49;90.29
61086;BME280;46967;48.876;2.136;2022-12-10T06:27:15;100865.59;;;1.58;90.37
61086;BME280;46967;48.876;2.136;2022-12-10T06:29:40;100873.38;;;1.69;89.75
61086;BME280;46967;48.876;2.136;2022-12-10T06:32:06;100875.88;;;1.64;89.65
61086;BME280;46967;48.876;2.136;2022-12-10T06:34:31;100878.44;;;1.64;89.18
61086;BME280;46967;48.876;2.136;2022-12-10T06:36:57;100874.97;;;1.56;89.65
61086;BME280;46967;48.876;2.136;2022-12-10T06:39:22;100873.38;;;1.69;89.08
61086;BME280;46967;48.876;2.136;2022-12-10T06:41:48;100868.31;;;1.76;88.65
61086;BME280;46967;48.876;2.136;2022-12-10T06:44:13;100869.16;;;1.77;88.45
61086;BME280;46967;48.876;2.136;2022-12-10T06:46:41;100867.44;;;1.77;88.50
61086;BME280;46967;48.876;2.136;2022-12-10T06:49:07;100870.09;;;1.88;88.30
61086;BME280;46967;48.876;2.136;2022-12-10T06:51:33;100874.41;;;1.95;87.78
61086;BME280;46967;48.876;2.136;2022-12-10T06:53:58;100871.84;;;1.94;87.90
61086;BME280;46967;48.876;2.136;2022-12-10T06:56:24;100871.00;;;1.98;88.01
61086;BME280;46967;48.876;2.136;2022-12-10T06:58:50;100880.47;;;2.05;87.32
61086;BME280;46967;48.876;2.136;2022-12-10T07:01:21;100879.59;;;2.09;87.40
61086;BME280;46967;48.876;2.136;2022-12-10T07:03:55;100893.31;;;2.14;87.47
61086;BME280;46967;48.876;2.136;2022-12-10T07:06:21;100890.75;;;2.13;87.62
61086;BME280;46967;48.876;2.136;2022-12-10T07:08:47;100893.34;;;2.17;87.34
61086;BME280;46967;48.876;2.136;2022-12-10T07:11:15;100896.78;;;2.21;87.19
61086;BME280;46967;48.876;2.136;2022-12-10T07:13:41;100896.69;;;2.10;87.45
61086;BME280;46967;48.876;2.136;2022-12-10T07:16:21;100900.06;;;2.02;87.45
61086;BME280;46967;48.876;2.136;2022-12-10T07:18:48;100902.66;;;2.05;87.08
61086;BME280;46967;48.876;2.136;2022-12-10T07:21:16;100902.66;;;2.09;87.08
61086;BME280;46967;48.876;2.136;2022-12-10T07:23:42;100899.13;;;1.93;87.56
61086;BME280;46967;48.876;2.136;2022-12-10T07:26:08;100906.06;;;2.05;86.86
61086;BME280;46967;48.876;2.136;2022-12-10T07:28:33;100918.84;;;2.05;87.06
61086;BME280;46967;48.876;2.136;2022-12-10T07:31:03;100919.75;;;2.10;86.98
61086;BME280;46967;48.876;2.136;2022-12-10T07:33:29;100914.63;;;2.12;87.24
61086;BME280;46967;48.876;2.136;2022-12-10T07:35:55;100921.50;;;2.16;87.01
61086;BME280;46967;48.876;2.136;2022-12-10T07:38:22;100922.31;;;2.13;87.03
61086;BME280;46967;48.876;2.136;2022-12-10T07:40:47;100921.44;;;2.07;87.47
61086;BME280;46967;48.876;2.136;2022-12-10T07:43:12;100920.56;;;2.09;87.10
61086;BME280;46967;48.876;2.136;2022-12-10T07:45:38;100917.19;;;2.13;86.61
61086;BME280;46967;48.876;2.136;2022-12-10T07:48:03;100924.00;;;2.07;87.30
61086;BME280;46967;48.876;2.136;2022-12-10T07:50:32;100927.44;;;2.12;87.00
61086;BME280;46967;48.876;2.136;2022-12-10T07:52:58;100932.53;;;2.07;87.25
61086;BME280;46967;48.876;2.136;2022-12-10T07:55:23;100937.72;;;2.16;86.82
61086;BME280;46967;48.876;2.136;2022-12-10T07:57:48;100942.03;;;2.21;86.83
61086;BME280;46967;48.876;2.136;2022-12-10T08:00:14;100946.13;;;2.00;87.63
61086;BME280;46967;48.876;2.136;2022-12-10T08:02:39;100949.56;;;2.04;87.45
61086;BME280;46967;48.876;2.136;2022-12-10T08:05:05;100944.53;;;2.16;87.06
61086;BME280;46967;48.876;2.136;2022-12-10T08:07:30;100940.34;;;2.27;86.91
61086;BME280;46967;48.876;2.136;2022-12-10T08:09:56;100952.28;;;2.28;86.88
61086;BME280;46967;48.876;2.136;2022-12-10T08:12:21;100946.34;;;2.32;86.54
61086;BME280;46967;48.876;2.136;2022-12-10T08:14:46;100954.06;;;2.37;86.01
61086;BME280;46967;48.876;2.136;2022-12-10T08:17:12;100958.38;;;2.41;85.86
61086;BME280;46967;48.876;2.136;2022-12-10T08:19:37;100964.38;;;2.45;85.65
61086;BME280;46967;48.876;2.136;2022-12-10T08:22:02;100972.97;;;2.53;85.53
61086;BME280;46967;48.876;2.136;2022-12-10T08:24:28;100975.47;;;2.44;85.76
61086;BME280;46967;48.876;2.136;2022-12-10T08:26:53;100966.88;;;2.37;86.17
61086;BME280;46967;48.876;2.136;2022-12-10T08:29:18;100966.91;;;2.43;86.03
61086;BME280;46967;48.876;2.136;2022-12-10T08:31:44;100974.56;;;2.39;85.68
61086;BME280;46967;48.876;2.136;2022-12-10T08:34:17;100983.16;;;2.47;85.47
61086;BME280;46967;48.876;2.136;2022-12-10T08:36:44;100986.53;;;2.37;85.45
61086;BME280;46967;48.876;2.136;2022-12-10T08:39:10;100984.03;;;2.44;85.39
61086;BME280;46967;48.876;2.136;2022-12-10T08:41:40;100994.25;;;2.46;85.53
61086;BME280;46967;48.876;2.136;2022-12-10T08:44:06;100983.06;;;2.31;85.86
61086;BME280;46967;48.876;2.136;2022-12-10T08:46:31;100991.63;;;2.35;85.90
61086;BME280;46967;48.876;2.136;2022-12-10T08:48:57;100998.53;;;2.47;85.20
61086;BME280;46967;48.876;2.136;2022-12-10T08:51:22;100994.28;;;2.50;85.37
61086;BME280;46967;48.876;2.136;2022-12-10T08:53:48;100996.00;;;2.50;85.50
61086;BME280;46967;48.876;2.136;2022-12-10T08:56:14;100999.44;;;2.57;85.07
61086;BME280;46967;48.876;2.136;2022-12-10T08:58:40;100995.19;;;2.56;85.01
61086;BME280;46967;48.876;2.136;2022-12-10T09:01:11;101002.91;;;2.59;84.78
61086;BME280;46967;48.876;2.136;2022-12-10T09:03:37;101003.72;;;2.56;85.05
61086;BME280;46967;48.876;2.136;2022-12-10T09:06:07;101007.94;;;2.46;85.21
61086;BME280;46967;48.876;2.136;2022-12-10T09:08:33;101009.69;;;2.55;85.12
61086;BME280;46967;48.876;2.136;2022-12-10T09:11:14;101009.66;;;2.52;84.92
61086;BME280;46967;48.876;2.136;2022-12-10T09:13:40;101012.25;;;2.55;85.36
61086;BME280;46967;48.876;2.136;2022-12-10T09:16:05;101018.25;;;2.54;84.57
61086;BME280;46967;48.876;2.136;2022-12-10T09:18:31;101015.63;;;2.46;84.91
61086;BME280;46967;48.876;2.136;2022-12-10T09:20:56;101018.88;;;2.22;85.57
61086;BME280;46967;48.876;2.136;2022-12-10T09:23:22;101021.44;;;2.27;85.47
61086;BME280;46967;48.876;2.136;2022-12-10T09:25:47;101016.28;;;2.19;85.51
61086;BME280;46967;48.876;2.136;2022-12-10T09:28:13;101025.66;;;2.20;85.34
61086;BME280;46967;48.876;2.136;2022-12-10T09:30:38;101011.91;;;2.09;85.34
61086;BME280;46967;48.876;2.136;2022-12-10T09:33:03;101024.00;;;2.24;85.32
61086;BME280;46967;48.876;2.136;2022-12-10T09:35:29;101025.84;;;2.43;84.72
61086;BME280;46967;48.876;2.136;2022-12-10T09:37:54;101015.47;;;2.26;84.40
61086;BME280;46967;48.876;2.136;2022-12-10T09:40:39;101024.09;;;2.41;83.71
61086;BME280;46967;48.876;2.136;2022-12-10T09:50:54;101026.88;;;2.70;81.79
61086;BME280;46967;48.876;2.136;2022-12-10T09:53:22;101030.38;;;2.81;80.96
61086;BME280;46967;48.876;2.136;2022-12-10T09:55:49;101030.44;;;2.94;80.87
61086;BME280;46967;48.876;2.136;2022-12-10T09:58:25;101032.16;;;2.99;80.75
61086;BME280;46967;48.876;2.136;2022-12-10T10:00:59;101035.63;;;3.09;79.91
61086;BME280;46967;48.876;2.136;2022-12-10T10:03:25;101031.41;;;3.14;79.22
61086;BME280;46967;48.876;2.136;2022-12-10T10:05:53;101032.25;;;3.18;79.35
61086;BME280;46967;48.876;2.136;2022-12-10T10:10:50;101016.88;;;3.21;78.63
61086;BME280;46967;48.876;2.136;2022-12-10T10:15:45;101022.91;;;3.32;79.66
61086;BME280;46967;48.876;2.136;2022-12-10T10:18:37;101030.72;;;3.77;78.74
61086;BME280;46967;48.876;2.136;2022-12-10T10:21:15;101025.63;;;3.88;77.01
61086;BME280;46967;48.876;2.136;2022-12-10T10:23:44;101029.03;;;3.73;76.93
61086;BME280;46967;48.876;2.136;2022-12-10T10:26:10;101026.44;;;3.77;76.27
61086;BME280;46967;48.876;2.136;2022-12-10T10:28:36;101024.72;;;3.66;76.94
61086;BME280;46967;48.876;2.136;2022-12-10T10:31:16;101032.41;;;3.59;77.50
61086;BME280;46967;48.876;2.136;2022-12-10T10:33:52;101032.31;;;3.29;79.05
61086;BME280;46967;48.876;2.136;2022-12-10T10:36:40;101035.69;;;3.24;79.83
61086;BME280;46967;48.876;2.136;2022-12-10T10:41:41;101028.91;;;3.37;79.28
61086;BME280;46967;48.876;2.136;2022-12-10T10:44:19;101029.78;;;3.35;78.80
61086;BME280;46967;48.876;2.136;2022-12-10T10:46:46;101024.69;;;3.61;77.30
61086;BME280;46967;48.876;2.136;2022-12-10T10:49:26;101023.84;;;3.56;77.78
61086;BME280;46967;48.876;2.136;2022-12-10T10:51:59;101023.84;;;3.59;77.58
61086;BME280;46967;48.876;2.136;2022-12-10T10:54:35;101027.19;;;3.27;78.13
61086;BME280;46967;48.876;2.136;2022-12-10T10:57:33;101040.81;;;3.20;78.88
61086;BME280;46967;48.876;2.136;2022-12-10T11:00:19;101048.53;;;3.24;79.47
61086;BME280;46967;48.876;2.136;2022-12-10T11:02:45;101042.47;;;3.07;79.61
61086;BME280;46967;48.876;2.136;2022-12-10T11:07:39;101037.41;;;3.24;78.48
61086;BME280;46967;48.876;2.136;2022-12-10T11:10:17;101037.41;;;3.24;78.66
61086;BME280;46967;48.876;2.136;2022-12-10T11:13:06;101031.47;;;3.39;78.22
61086;BME280;46967;48.876;2.136;2022-12-10T11:15:40;101029.81;;;3.52;77.80
61086;BME280;46967;48.876;2.136;2022-12-10T11:18:39;101030.66;;;3.48;77.83
61086;BME280;46967;48.876;2.136;2022-12-10T11:23:41;101021.22;;;3.40;78.21
61086;BME280;46967;48.876;2.136;2022-12-10T11:26:13;101033.22;;;3.44;78.30
61086;BME280;46967;48.876;2.136;2022-12-10T11:34:54;101023.91;;;3.74;76.52
61086;BME280;46967;48.876;2.136;2022-12-10T11:37:32;101020.44;;;3.68;77.39
61086;BME280;46967;48.876;2.136;2022-12-10T11:45:53;101030.72;;;3.71;77.80
61086;BME280;46967;48.876;2.136;2022-12-10T11:48:31;101023.81;;;3.47;78.45
61086;BME280;46967;48.876;2.136;2022-12-10T11:51:40;101037.47;;;3.38;78.36
61086;BME280;46967;48.876;2.136;2022-12-10T11:54:29;101034.91;;;3.33;78.53
61086;BME280;46967;48.876;2.136;2022-12-10T11:57:03;101030.63;;;3.41;78.56
61086;BME280;46967;48.876;2.136;2022-12-10T12:02:38;101033.28;;;3.75;76.92
61086;BME280;46967;48.876;2.136;2022-12-10T12:05:26;101025.59;;;3.83;76.37
61086;BME280;46967;48.876;2.136;2022-12-10T12:13:35;101027.31;;;3.83;77.08
61086;BME280;46967;48.876;2.136;2022-12-10T12:16:16;101028.19;;;3.94;76.06
61086;BME280;46967;48.876;2.136;2022-12-10T12:21:13;101032.47;;;4.09;75.23
61086;BME280;46967;48.876;2.136;2022-12-10T12:29:17;101033.34;;;4.11;76.10
61086;BME280;46967;48.876;2.136;2022-12-10T12:31:54;101036.78;;;4.22;75.52
61086;BME280;46967;48.876;2.136;2022-12-10T12:34:25;101029.88;;;3.70;76.36
61086;BME280;46967;48.876;2.136;2022-12-10T12:36:53;101034.94;;;3.50;77.49
61086;BME280;46967;48.876;2.136;2022-12-10T12:40:00;101034.00;;;3.31;78.27
61086;BME280;46967;48.876;2.136;2022-12-10T12:42:43;101039.19;;;3.47;77.19
61086;BME280;46967;48.876;2.136;2022-12-10T12:45:21;101035.78;;;3.43;77.00
61086;BME280;46967;48.876;2.136;2022-12-10T12:51:10;101041.78;;;3.47;75.93
61086;BME280;46967;48.876;2.136;2022-12-10T12:53:38;101030.66;;;3.48;76.66
61086;BME280;46967;48.876;2.136;2022-12-10T13:01:28;101034.13;;;3.62;76.20
61086;BME280;46967;48.876;2.136;2022-12-10T13:03:56;101028.09;;;3.49;76.96
61086;BME280;46967;48.876;2.136;2022-12-10T13:06:27;101028.06;;;3.41;77.49
61086;BME280;46967;48.876;2.136;2022-12-10T13:11:46;101016.88;;;3.16;78.35
61086;BME280;46967;48.876;2.136;2022-12-10T13:14:35;101020.34;;;3.37;77.42
61086;BME280;46967;48.876;2.136;2022-12-10T13:17:09;101020.34;;;3.32;77.71
61086;BME280;46967;48.876;2.136;2022-12-10T13:19:50;101027.97;;;3.20;78.33
61086;BME280;46967;48.876;2.136;2022-12-10T13:22:41;101025.38;;;3.09;78.70
61086;BME280;46967;48.876;2.136;2022-12-10T13:25:16;101028.72;;;2.93;79.96
61086;BME280;46967;48.876;2.136;2022-12-10T13:27:55;101032.09;;;2.90;80.00
61086;BME280;46967;48.876;2.136;2022-12-10T13:32:53;101033.03;;;3.06;79.64
61086;BME280;46967;48.876;2.136;2022-12-10T13:35:31;101037.38;;;3.18;77.97
61086;BME280;46967;48.876;2.136;2022-12-10T13:38:22;101040.84;;;3.29;77.74
61086;BME280;46967;48.876;2.136;2022-12-10T13:41:05;101039.97;;;3.22;78.39
61086;BME280;46967;48.876;2.136;2022-12-10T13:43:58;101034.00;;;3.31;77.57
61086;BME280;46967;48.876;2.136;2022-12-10T13:49:20;101045.97;;;3.26;77.21
61086;BME280;46967;48.876;2.136;2022-12-10T13:52:07;101048.53;;;3.24;77.71
61086;BME280;46967;48.876;2.136;2022-12-10T13:57:29;101052.78;;;3.21;78.67
61086;BME280;46967;48.876;2.136;2022-12-10T14:00:19;101050.28;;;3.30;78.79
61086;BME280;46967;48.876;2.136;2022-12-10T14:05:46;101051.97;;;3.30;78.11
61086;BME280;46967;48.876;2.136;2022-12-10T14:08:18;101056.28;;;3.37;78.08
61086;BME280;46967;48.876;2.136;2022-12-10T14:10:45;101052.88;;;3.42;78.44
61086;BME280;46967;48.876;2.136;2022-12-10T14:13:13;101045.16;;;3.42;78.15
61086;BME280;46967;48.876;2.136;2022-12-10T14:15:41;101045.16;;;3.44;77.90
61086;BME280;46967;48.876;2.136;2022-12-10T14:18:13;101053.72;;;3.40;78.15
61086;BME280;46967;48.876;2.136;2022-12-10T14:20:47;101061.41;;;3.38;78.32
61086;BME280;46967;48.876;2.136;2022-12-10T14:23:30;101060.47;;;3.18;79.12
61086;BME280;46967;48.876;2.136;2022-12-10T14:26:09;101062.19;;;3.16;79.34
61086;BME280;46967;48.876;2.136;2022-12-10T14:28:44;101055.34;;;3.15;79.00
61086;BME280;46967;48.876;2.136;2022-12-10T14:31:20;101065.53;;;3.05;79.52
61086;BME280;46967;48.876;2.136;2022-12-10T14:33:48;101059.56;;;3.06;79.54
61086;BME280;46967;48.876;2.136;2022-12-10T14:36:19;101066.47;;;3.23;78.86
61086;BME280;46967;48.876;2.136;2022-12-10T14:38:45;101069.84;;;3.10;78.67
61086;BME280;46967;48.876;2.136;2022-12-10T14:41:16;101070.66;;;3.05;78.56
61086;BME280;46967;48.876;2.136;2022-12-10T14:43:42;101064.66;;;3.02;79.06